createdAt,value
2023-04-29T00:00:35.077Z,14.64
2023-04-29T00:03:22.253Z,14.51
2023-04-29T00:06:09.660Z,14.64
2023-04-29T00:08:56.091Z,14.61
2023-04-29T00:11:44.213Z,14.38
2023-04-29T00:14:30.771Z,14.50
2023-04-29T00:17:17.754Z,14.36
2023-04-29T00:20:04.664Z,14.38
2023-04-29T00:22:51.533Z,14.49
2023-04-29T00:25:38.405Z,14.41
2023-04-29T00:28:27.014Z,14.33
2023-04-29T00:31:14.025Z,14.47
2023-04-29T00:34:00.505Z,14.40
2023-04-29T00:36:47.733Z,14.35
2023-04-29T00:39:34.277Z,14.33
2023-04-29T00:42:21.878Z,14.42
2023-04-29T00:45:12.627Z,14.32
2023-04-29T00:47:59.168Z,14.30
2023-04-29T00:50:45.780Z,14.32
2023-04-29T00:53:33.001Z,14.18
2023-04-29T00:56:21.113Z,14.30
2023-04-29T00:59:10.251Z,14.39
2023-04-29T01:01:58.429Z,14.11
2023-04-29T01:04:45.200Z,14.06
2023-04-29T01:07:39.687Z,14.06
2023-04-29T01:10:29.885Z,14.20
2023-04-29T01:13:20.231Z,14.22
2023-04-29T01:16:14.106Z,14.15
2023-04-29T01:19:08.514Z,14.11
2023-04-29T01:21:55.783Z,14.03
2023-04-29T01:24:43.863Z,14.06
2023-04-29T01:27:34.549Z,14.16
2023-04-29T01:30:32.650Z,14.21
2023-04-29T01:33:29.519Z,14.23
2023-04-29T01:36:27.885Z,14.20
2023-04-29T01:39:18.086Z,14.09
2023-04-29T01:42:18.661Z,14.11
2023-04-29T01:45:09.601Z,13.92
2023-04-29T01:47:57.209Z,14.00
2023-04-29T01:50:43.981Z,14.07
2023-04-29T01:53:32.662Z,14.07
2023-04-29T01:56:19.645Z,14.06
2023-04-29T01:59:19.416Z,14.09
2023-04-29T02:02:31.486Z,14.22
2023-04-29T02:05:32.373Z,14.20
2023-04-29T02:08:19.203Z,14.15
2023-04-29T02:11:07.357Z,14.28
2023-04-29T02:13:57.299Z,14.06
2023-04-29T02:16:46.802Z,13.99
2023-04-29T02:19:34.429Z,13.66
2023-04-29T02:22:21.181Z,13.84
2023-04-29T02:25:08.583Z,13.70
2023-04-29T02:27:55.386Z,13.59
2023-04-29T02:30:42.185Z,13.56
2023-04-29T02:33:30.399Z,13.64
2023-04-29T02:36:17.831Z,13.60
2023-04-29T02:39:04.578Z,13.40
2023-04-29T02:41:51.172Z,13.30
2023-04-29T02:44:39.544Z,13.47
2023-04-29T02:47:26.919Z,13.42
2023-04-29T02:50:14.778Z,13.35
2023-04-29T02:53:01.515Z,13.28
2023-04-29T02:55:48.932Z,13.20
2023-04-29T02:58:35.504Z,13.23
2023-04-29T03:01:24.410Z,13.37
2023-04-29T03:04:11.292Z,13.27
2023-04-29T03:06:59.254Z,13.32
2023-04-29T03:09:46.942Z,13.32
2023-04-29T03:12:34.834Z,13.33
2023-04-29T03:15:22.057Z,13.40
2023-04-29T03:18:09.924Z,13.39
2023-04-29T03:20:57.340Z,13.54
2023-04-29T03:23:45.329Z,13.48
2023-04-29T03:26:38.653Z,13.46
2023-04-29T03:29:25.445Z,13.38
2023-04-29T03:32:12.232Z,13.38
2023-04-29T03:34:59.158Z,13.41
2023-04-29T03:37:59.566Z,13.43
2023-04-29T03:40:51.634Z,13.45
2023-04-29T03:43:38.603Z,13.47
2023-04-29T03:46:25.378Z,13.39
2023-04-29T03:49:12.219Z,13.41
2023-04-29T03:51:58.687Z,13.37
2023-04-29T03:54:45.513Z,13.35
2023-04-29T03:57:33.573Z,13.33
2023-04-29T04:00:20.501Z,13.43
2023-04-29T04:03:12.811Z,13.40
2023-04-29T04:05:59.731Z,13.54
2023-04-29T04:08:46.461Z,13.57
2023-04-29T04:11:40.725Z,13.65
2023-04-29T04:14:28.976Z,13.68
2023-04-29T04:17:15.841Z,13.67
2023-04-29T04:20:02.381Z,13.75
2023-04-29T04:22:49.151Z,13.65
2023-04-29T04:25:54.461Z,13.77
2023-04-29T04:29:01.247Z,13.77
2023-04-29T04:31:54.882Z,13.84
2023-04-29T04:34:42.683Z,13.78
2023-04-29T04:37:30.055Z,13.92
2023-04-29T04:40:19.374Z,13.86
2023-04-29T04:43:33.147Z,13.92
2023-04-29T04:46:20.595Z,13.94
2023-04-29T04:49:27.351Z,14.07
2023-04-29T04:52:14.118Z,14.09
2023-04-29T04:55:02.983Z,14.14
2023-04-29T04:57:51.633Z,14.16
2023-04-29T05:00:38.374Z,14.47
2023-04-29T05:03:25.363Z,14.42
2023-04-29T05:06:14.862Z,14.35
2023-04-29T05:09:05.492Z,14.28
2023-04-29T05:11:52.550Z,14.28
2023-04-29T05:14:40.472Z,14.34
2023-04-29T05:17:27.110Z,14.31
2023-04-29T05:20:14.912Z,14.47
2023-04-29T05:23:03.183Z,14.61
2023-04-29T05:25:55.276Z,14.64
2023-04-29T05:28:41.883Z,14.39
2023-04-29T05:31:29.692Z,14.48
2023-04-29T05:34:20.429Z,14.62
2023-04-29T05:37:07.474Z,14.62
2023-04-29T05:40:06.215Z,14.59
2023-04-29T05:42:53.948Z,14.51
2023-04-29T05:45:41.869Z,14.53
2023-04-29T05:48:29.317Z,14.71
2023-04-29T05:51:15.878Z,14.64
2023-04-29T05:54:02.737Z,14.52
2023-04-29T05:56:52.118Z,14.67
2023-04-29T05:59:39.039Z,14.83
2023-04-29T06:02:25.914Z,14.94
2023-04-29T06:05:12.830Z,15.00
2023-04-29T06:08:07.154Z,14.83
2023-04-29T06:11:12.623Z,14.76
2023-04-29T06:14:02.431Z,14.76
2023-04-29T06:16:49.675Z,14.89
2023-04-29T06:19:36.318Z,14.92
2023-04-29T06:22:23.249Z,14.98
2023-04-29T06:25:12.487Z,14.88
2023-04-29T06:28:08.515Z,14.96
2023-04-29T06:30:58.101Z,14.87
2023-04-29T06:33:44.599Z,14.74
2023-04-29T06:36:32.525Z,14.88
2023-04-29T06:39:22.339Z,14.81
2023-04-29T06:42:47.601Z,14.74
2023-04-29T06:45:54.801Z,14.56
2023-04-29T06:48:49.112Z,14.76
2023-04-29T06:51:37.113Z,14.86
2023-04-29T06:54:23.816Z,14.80
2023-04-29T06:57:10.492Z,14.66
2023-04-29T06:59:57.236Z,14.81
2023-04-29T07:02:44.505Z,14.81
2023-04-29T07:05:32.516Z,14.73
2023-04-29T07:08:19.428Z,14.72
2023-04-29T07:11:06.447Z,14.70
2023-04-29T07:13:54.441Z,14.77
2023-04-29T07:16:40.934Z,14.82
2023-04-29T07:19:30.368Z,14.76
2023-04-29T07:22:18.418Z,14.64
2023-04-29T07:25:05.536Z,14.61
2023-04-29T07:27:52.575Z,14.70
2023-04-29T07:30:39.499Z,14.51
2023-04-29T07:33:26.193Z,14.49
2023-04-29T07:36:13.109Z,14.55
2023-04-29T07:39:01.884Z,14.66
2023-04-29T07:41:48.517Z,14.52
2023-04-29T07:44:35.267Z,14.40
2023-04-29T07:47:22.673Z,14.41
2023-04-29T07:50:10.735Z,14.62
2023-04-29T07:53:00.506Z,14.69
2023-04-29T07:55:48.582Z,14.59
2023-04-29T07:58:35.254Z,14.69
2023-04-29T08:01:22.093Z,14.40
2023-04-29T08:04:09.353Z,14.48
2023-04-29T08:07:07.944Z,14.60
2023-04-29T08:09:56.376Z,14.65
2023-04-29T08:12:46.887Z,14.71
2023-04-29T08:15:34.031Z,14.63
2023-04-29T08:18:21.375Z,14.56
2023-04-29T08:21:09.449Z,14.76
2023-04-29T08:23:55.871Z,14.74
2023-04-29T08:26:42.625Z,15.04
2023-04-29T08:29:32.822Z,15.03
2023-04-29T08:32:19.507Z,14.87
2023-04-29T08:35:06.912Z,14.74
2023-04-29T08:37:54.666Z,14.66
2023-04-29T08:40:44.247Z,14.59
2023-04-29T08:43:31.480Z,14.60
2023-04-29T08:46:20.974Z,14.76
2023-04-29T08:49:08.372Z,14.63
2023-04-29T08:51:55.064Z,14.56
2023-04-29T08:54:42.105Z,14.39
2023-04-29T08:57:30.975Z,14.14
2023-04-29T09:00:19.762Z,14.13
2023-04-29T09:03:15.424Z,14.25
2023-04-29T09:06:03.473Z,14.09
2023-04-29T09:08:50.440Z,13.76
2023-04-29T09:11:38.654Z,14.01
2023-04-29T09:14:26.387Z,14.04
2023-04-29T09:17:12.909Z,13.98
2023-04-29T09:20:01.023Z,13.88
2023-04-29T09:22:49.324Z,13.91
2023-04-29T09:25:36.583Z,13.71
2023-04-29T09:28:23.395Z,13.71
2023-04-29T09:31:11.127Z,13.95
2023-04-29T09:33:59.142Z,13.69
2023-04-29T09:36:48.758Z,13.60
2023-04-29T09:39:40.541Z,13.90
2023-04-29T09:42:27.597Z,13.72
2023-04-29T09:45:14.054Z,13.66
2023-04-29T09:48:04.223Z,13.69
2023-04-29T09:51:02.808Z,14.23
2023-04-29T09:53:50.544Z,14.34
2023-04-29T09:56:50.911Z,14.37
2023-04-29T09:59:39.395Z,14.28
2023-04-29T10:02:28.432Z,14.40
2023-04-29T10:05:16.161Z,14.33
2023-04-29T10:08:04.212Z,14.39
2023-04-29T10:10:57.704Z,14.16
2023-04-29T10:13:45.082Z,13.97
2023-04-29T10:16:38.359Z,14.11
2023-04-29T10:19:28.897Z,14.06
2023-04-29T10:22:23.590Z,14.30
2023-04-29T10:25:11.433Z,14.41
2023-04-29T10:28:01.641Z,14.80
2023-04-29T10:30:52.647Z,15.06
2023-04-29T10:33:44.386Z,15.55
2023-04-29T10:36:32.227Z,15.50
2023-04-29T10:39:28.148Z,15.62
2023-04-29T10:42:22.975Z,16.10
2023-04-29T10:45:21.200Z,16.16
2023-04-29T10:48:16.060Z,16.41
2023-04-29T10:51:03.540Z,16.11
2023-04-29T10:54:01.278Z,16.69
2023-04-29T10:56:50.470Z,16.71
2023-04-29T10:59:46.605Z,16.69
2023-04-29T11:02:34.787Z,16.43
2023-04-29T11:05:32.165Z,16.13
2023-04-29T11:08:24.030Z,15.91
2023-04-29T11:11:11.291Z,16.03
2023-04-29T11:13:57.729Z,16.51
2023-04-29T11:16:53.750Z,16.98
2023-04-29T11:19:46.509Z,17.23
2023-04-29T11:22:34.541Z,17.14
2023-04-29T11:25:21.230Z,17.41
2023-04-29T11:28:09.047Z,16.95
2023-04-29T11:30:55.910Z,16.90
2023-04-29T11:33:42.584Z,16.98
2023-04-29T11:36:32.956Z,16.93
2023-04-29T11:39:19.630Z,17.09
2023-04-29T11:42:07.120Z,16.96
2023-04-29T11:45:05.264Z,16.87
2023-04-29T11:47:56.060Z,16.99
2023-04-29T11:50:43.526Z,16.70
2023-04-29T11:53:31.811Z,16.79
2023-04-29T11:56:18.634Z,16.46
2023-04-29T11:59:09.333Z,16.50
2023-04-29T12:02:02.395Z,16.71
2023-04-29T12:04:50.771Z,16.63
2023-04-29T12:07:42.441Z,16.59
2023-04-29T12:10:40.785Z,16.50
2023-04-29T12:13:39.293Z,16.71
2023-04-29T12:16:37.761Z,16.79
2023-04-29T12:19:33.311Z,16.73
2023-04-29T12:22:30.793Z,16.27
2023-04-29T12:25:27.623Z,15.77
2023-04-29T12:28:36.941Z,16.08
2023-04-29T12:35:04.631Z,16.33
2023-04-29T12:38:05.444Z,16.29
2023-04-29T12:41:11.725Z,16.49
2023-04-29T12:44:26.044Z,16.39
2023-04-29T12:47:19.721Z,16.50
2023-04-29T12:50:34.718Z,16.58
2023-04-29T12:53:43.712Z,16.74
2023-04-29T12:56:33.974Z,16.63
2023-04-29T12:59:38.739Z,16.83
2023-04-29T13:02:36.618Z,16.91
2023-04-29T13:05:37.471Z,16.92
2023-04-29T13:08:32.116Z,16.99
2023-04-29T13:11:34.807Z,17.28
2023-04-29T13:14:39.702Z,17.14
2023-04-29T13:17:41.849Z,17.20
2023-04-29T13:20:32.723Z,17.08
2023-04-29T13:23:25.036Z,17.13
2023-04-29T13:26:27.240Z,17.07
2023-04-29T13:29:21.718Z,17.15
2023-04-29T13:32:19.069Z,17.19
2023-04-29T13:35:11.243Z,17.44
2023-04-29T13:38:12.193Z,17.60
2023-04-29T13:41:07.939Z,17.82
2023-04-29T13:44:27.401Z,17.79
2023-04-29T13:47:30.311Z,18.09
2023-04-29T13:50:57.353Z,17.79
2023-04-29T13:54:29.333Z,17.85
2023-04-29T13:57:39.296Z,17.72
2023-04-29T14:00:31.795Z,17.60
2023-04-29T14:03:28.946Z,17.72
2023-04-29T14:06:25.614Z,17.50
2023-04-29T14:09:19.205Z,17.81
2023-04-29T14:12:07.018Z,18.02
2023-04-29T14:14:55.363Z,17.92
2023-04-29T14:17:42.861Z,17.64
2023-04-29T14:20:31.908Z,17.42
2023-04-29T14:23:23.448Z,17.50
2023-04-29T14:26:27.111Z,17.16
2023-04-29T14:29:15.171Z,17.61
2023-04-29T14:32:03.187Z,17.68
2023-04-29T14:34:51.233Z,17.54
2023-04-29T14:37:40.414Z,17.72
2023-04-29T14:40:27.833Z,17.86
2023-04-29T14:43:15.617Z,17.53
2023-04-29T14:46:03.413Z,17.65
2023-04-29T14:48:51.384Z,17.81
2023-04-29T14:51:38.821Z,18.11
2023-04-29T14:54:28.307Z,18.49
2023-04-29T14:57:15.758Z,18.44
2023-04-29T15:00:04.024Z,18.45
2023-04-29T15:02:51.366Z,18.52
2023-04-29T15:05:38.898Z,18.50
2023-04-29T15:08:26.693Z,17.94
2023-04-29T15:11:16.035Z,17.95
2023-04-29T15:14:03.495Z,17.99
2023-04-29T15:16:51.172Z,18.15
2023-04-29T15:19:38.770Z,18.34
2023-04-29T15:22:25.989Z,18.10
2023-04-29T15:25:13.862Z,17.84
2023-04-29T15:28:04.078Z,17.69
2023-04-29T15:30:52.294Z,17.87
2023-04-29T15:33:40.132Z,17.15
2023-04-29T15:36:31.419Z,17.35
2023-04-29T15:39:19.090Z,17.35
2023-04-29T15:42:07.065Z,17.29
2023-04-29T15:44:56.518Z,17.01
2023-04-29T15:47:43.966Z,17.20
2023-04-29T15:50:31.305Z,17.36
2023-04-29T15:53:19.129Z,17.28
2023-04-29T15:56:07.051Z,17.26
2023-04-29T15:58:54.983Z,17.62
2023-04-29T16:01:43.808Z,17.55
2023-04-29T16:04:31.762Z,17.78
2023-04-29T16:07:19.907Z,17.77
2023-04-29T16:10:08.569Z,17.74
2023-04-29T16:12:56.200Z,17.81
2023-04-29T16:15:43.879Z,17.69
2023-04-29T16:18:33.981Z,17.84
2023-04-29T16:21:22.359Z,17.85
2023-04-29T16:24:09.637Z,17.65
2023-04-29T16:26:59.399Z,17.73
2023-04-29T16:29:47.034Z,17.70
2023-04-29T16:32:35.176Z,17.74
2023-04-29T16:35:26.686Z,17.54
2023-04-29T16:38:15.997Z,17.59
2023-04-29T16:41:05.083Z,17.75
2023-04-29T16:43:54.669Z,17.91
2023-04-29T16:46:42.856Z,17.75
2023-04-29T16:49:32.329Z,17.08
2023-04-29T16:52:21.171Z,17.32
2023-04-29T16:55:09.659Z,17.38
2023-04-29T16:57:57.542Z,17.33
2023-04-29T17:00:45.697Z,17.40
2023-04-29T17:03:33.190Z,17.21
2023-04-29T17:06:20.927Z,17.19
2023-04-29T17:09:13.601Z,17.24
2023-04-29T17:12:00.311Z,17.36
2023-04-29T17:14:48.417Z,17.31
2023-04-29T17:17:35.605Z,17.18
2023-04-29T17:20:22.881Z,17.28
2023-04-29T17:23:10.075Z,17.42
2023-04-29T17:25:58.574Z,17.15
2023-04-29T17:28:45.473Z,16.98
2023-04-29T17:31:45.442Z,16.93
2023-04-29T17:34:34.138Z,16.73
2023-04-29T17:37:25.032Z,16.80
2023-04-29T17:40:12.798Z,16.86
2023-04-29T17:43:00.712Z,16.67
2023-04-29T17:45:47.689Z,16.22
2023-04-29T17:48:34.485Z,16.32
2023-04-29T17:51:21.232Z,16.24
2023-04-29T17:54:09.131Z,16.09
2023-04-29T17:56:55.953Z,16.27
2023-04-29T17:59:44.058Z,16.19
2023-04-29T18:02:32.674Z,16.07
2023-04-29T18:05:20.682Z,16.08
2023-04-29T18:08:07.414Z,16.11
2023-04-29T18:10:54.074Z,16.08
2023-04-29T18:13:41.077Z,16.12
2023-04-29T18:16:29.237Z,15.89
2023-04-29T18:19:15.686Z,15.66
2023-04-29T18:22:02.833Z,15.72
2023-04-29T18:24:49.954Z,15.56
2023-04-29T18:27:36.789Z,15.40
2023-04-29T18:30:23.573Z,15.17
2023-04-29T18:33:11.811Z,15.02
2023-04-29T18:35:58.592Z,14.86
2023-04-29T18:38:45.375Z,14.82
2023-04-29T18:41:33.203Z,14.69
2023-04-29T18:44:20.122Z,14.61
2023-04-29T18:47:06.818Z,14.34
2023-04-29T18:49:55.265Z,14.17
2023-04-29T18:52:42.673Z,14.06
2023-04-29T18:55:52.955Z,13.66
2023-04-29T18:58:44.024Z,13.48
2023-04-29T19:01:30.867Z,13.41
2023-04-29T19:04:17.696Z,13.35
2023-04-29T19:07:08.017Z,13.08
2023-04-29T19:09:57.287Z,12.92
2023-04-29T19:12:45.492Z,12.85
2023-04-29T19:15:40.745Z,12.87
2023-04-29T19:18:31.865Z,12.73
2023-04-29T19:21:20.372Z,12.56
2023-04-29T19:24:09.186Z,12.54
2023-04-29T19:27:02.141Z,12.29
2023-04-29T19:29:57.190Z,12.23
2023-04-29T19:33:01.124Z,12.19
2023-04-29T19:36:03.187Z,12.08
2023-04-29T19:38:53.690Z,11.98
2023-04-29T19:41:51.100Z,11.93
2023-04-29T19:44:41.863Z,11.98
2023-04-29T19:47:44.656Z,11.97
2023-04-29T19:50:45.583Z,11.90
2023-04-29T19:53:46.933Z,11.85
2023-04-29T19:56:58.475Z,12.01
2023-04-29T20:00:22.205Z,11.91
2023-04-29T20:03:13.209Z,11.91
2023-04-29T20:06:02.280Z,11.79
2023-04-29T20:08:51.053Z,11.72
2023-04-29T20:11:38.416Z,11.71
2023-04-29T20:14:25.925Z,11.61
2023-04-29T20:17:13.871Z,11.61
2023-04-29T20:20:00.442Z,11.49
2023-04-29T20:22:47.267Z,11.50
2023-04-29T20:25:34.021Z,11.43
2023-04-29T20:28:20.901Z,11.56
2023-04-29T20:31:08.654Z,11.26
2023-04-29T20:33:56.557Z,11.25
2023-04-29T20:36:43.224Z,11.06
2023-04-29T20:39:29.976Z,11.10
2023-04-29T20:42:16.964Z,11.15
2023-04-29T20:45:03.501Z,11.10
2023-04-29T20:47:50.344Z,11.02
2023-04-29T20:50:38.539Z,10.98
2023-04-29T20:53:25.787Z,11.11
2023-04-29T20:56:12.237Z,11.00
2023-04-29T20:58:59.733Z,11.08
2023-04-29T21:01:46.681Z,11.08
2023-04-29T21:04:33.323Z,11.11
2023-04-29T21:07:21.492Z,11.16
2023-04-29T21:10:08.852Z,11.14
2023-04-29T21:12:55.604Z,11.18
2023-04-29T21:15:45.570Z,11.06
2023-04-29T21:18:32.419Z,11.03
2023-04-29T21:21:19.215Z,11.03
2023-04-29T21:24:07.459Z,10.83
2023-04-29T21:26:54.333Z,11.00
2023-04-29T21:29:41.153Z,10.80
2023-04-29T21:32:28.090Z,10.67
2023-04-29T21:35:14.985Z,10.74
2023-04-29T21:38:01.747Z,10.59
2023-04-29T21:40:50.067Z,10.50
2023-04-29T21:43:36.591Z,10.49
2023-04-29T21:46:23.258Z,10.51
2023-04-29T21:49:10.337Z,10.33
2023-04-29T21:51:57.136Z,10.20
2023-04-29T21:54:43.887Z,10.09
2023-04-29T21:57:43.745Z,10.32
2023-04-29T22:00:33.420Z,10.27
2023-04-29T22:03:19.961Z,10.37
2023-04-29T22:06:06.874Z,10.33
2023-04-29T22:08:53.773Z,10.43
2023-04-29T22:11:40.830Z,10.50
2023-04-29T22:14:28.773Z,10.60
2023-04-29T22:17:15.821Z,10.69
2023-04-29T22:20:04.420Z,10.70
2023-04-29T22:22:51.783Z,10.62
2023-04-29T22:25:38.405Z,10.78
2023-04-29T22:28:25.205Z,10.83
2023-04-29T22:31:13.457Z,10.87
2023-04-29T22:34:00.155Z,10.91
2023-04-29T22:36:46.981Z,10.96
2023-04-29T22:39:33.865Z,10.93
2023-04-29T22:42:21.037Z,11.02
2023-04-29T22:45:09.410Z,10.81
2023-04-29T22:47:57.689Z,10.79
2023-04-29T22:50:51.331Z,10.76
2023-04-29T22:53:46.594Z,10.70
2023-04-29T22:56:45.154Z,10.64
2023-04-29T22:59:35.797Z,10.70
2023-04-29T23:02:27.575Z,10.60
2023-04-29T23:05:15.819Z,10.38
2023-04-29T23:08:02.635Z,10.44
2023-04-29T23:10:50.102Z,10.25
2023-04-29T23:13:36.835Z,10.07
2023-04-29T23:16:23.559Z,10.02
2023-04-29T23:19:10.288Z,10.15
2023-04-29T23:21:58.490Z,9.98
2023-04-29T23:24:45.171Z,10.06
2023-04-29T23:27:31.633Z,9.97
2023-04-29T23:30:18.588Z,9.73
2023-04-29T23:33:05.590Z,9.61
2023-04-29T23:35:52.818Z,9.59
2023-04-29T23:38:42.068Z,9.69
2023-04-29T23:41:29.093Z,9.58
2023-04-29T23:44:16.091Z,9.32
2023-04-29T23:47:02.968Z,9.10
2023-04-29T23:49:49.686Z,9.01
2023-04-29T23:52:36.539Z,8.90
2023-04-29T23:55:24.759Z,8.92
2023-04-29T23:58:11.540Z,9.05
